»·PEaware :: AAL824 KLAS-KSNA

AAL824 :: KLAS-KSNA

FLIGHT INFORMATION

Flight Status: Arrived
Operator:
American Airlines
More flights by this operator :: More flights under this callsign
Pilot: Andrew S. (20703)
Aircraft: BOEING 737-800
(B738)
More flights by this aircraft type
Origin: KLAS McCarran Intl
United States
Destination: KSNA John Wayne-Orange Co
United States
More flights between these airports :: More routes between these airports
Route: BOACH8 WHIGG FEYLA DSNEE4
File this flight plan on PilotEdge
Remarks: RMK / SIMBRIEF
Altitude:
(Current/Filed)
30,000ft
Speed:
(Current/Filed)
435kts
Departed: 09-Jan-21 07:38 PM
Arrived: 09-Jan-21 08:17 PM
Distance/Time
Traveled:
197nm/0:39
Distance/Time
To Go:
Arrived

Flight Plot

Page will automatically refresh every two minutes.

Flight plan parsing failed; only flown route is shown


Map Options




Map Legend


Flown Route
Filed Route
Departure Airport
Arrival Airport
Navaid (VOR, NDB)
Fix

Horizontal Profiles

Position Reports

Time Latitude Longitude Heading Altitude Ground
Speed
09-Jan-21 19:09 36.080748 -115.134864 239 2191ft 0kts
09-Jan-21 19:10 36.080748 -115.134864 239 2191ft 0kts
09-Jan-21 19:11 36.080748 -115.134864 239 2191ft 0kts
09-Jan-21 19:12 36.080748 -115.134864 239 2191ft 0kts
09-Jan-21 19:13 36.080748 -115.134864 239 2191ft 0kts
09-Jan-21 19:14 36.080748 -115.134864 239 2191ft 0kts
09-Jan-21 19:15 36.080748 -115.134864 239 2191ft 0kts
09-Jan-21 19:16 36.080748 -115.134864 239 2191ft 0kts
09-Jan-21 19:17 36.080748 -115.134864 239 2191ft 0kts
09-Jan-21 19:18 36.080748 -115.134864 239 2191ft 0kts
09-Jan-21 19:19 36.080748 -115.134864 239 2191ft 0kts
09-Jan-21 19:20 36.080748 -115.134864 239 2191ft 0kts
09-Jan-21 19:21 36.080750 -115.134861 239 2191ft 0kts
09-Jan-21 19:22 36.081051 -115.134328 206 2191ft 2kts
09-Jan-21 19:23 36.081443 -115.134374 146 2191ft 0kts
09-Jan-21 19:24 36.081443 -115.134373 146 2191ft 0kts
09-Jan-21 19:25 36.081443 -115.134373 146 2191ft 0kts
09-Jan-21 19:26 36.079547 -115.133396 162 2191ft 14kts
09-Jan-21 19:27 36.077339 -115.131824 96 2191ft 6kts
09-Jan-21 19:28 36.077584 -115.123753 88 2191ft 31kts
09-Jan-21 19:29 36.077583 -115.122051 92 2191ft 14kts
09-Jan-21 19:30 36.077570 -115.121804 94 2191ft 0kts
09-Jan-21 19:31 36.077565 -115.121708 95 2191ft 0kts
09-Jan-21 19:32 36.077565 -115.121708 95 2191ft 0kts
09-Jan-21 19:33 36.077565 -115.121708 95 2191ft 0kts
09-Jan-21 19:34 36.077565 -115.121708 95 2191ft 0kts
09-Jan-21 19:35 36.077565 -115.121708 95 2191ft 0kts
09-Jan-21 19:36 36.076443 -115.121912 268 2191ft 2kts
09-Jan-21 19:37 36.076341 -115.145212 271 2316ft 176kts
09-Jan-21 19:38 36.076661 -115.214013 265 4688ft 244kts
09-Jan-21 19:39 36.025710 -115.276804 201 7159ft 306kts
09-Jan-21 19:40 35.945005 -115.304854 187 10863ft 313kts
09-Jan-21 19:41 35.851511 -115.313857 178 12868ft 370kts
09-Jan-21 19:42 35.746355 -115.302457 176 15632ft 389kts
09-Jan-21 19:43 35.646530 -115.343127 225 18199ft 388kts
09-Jan-21 19:44 35.571206 -115.439153 232 20560ft 398kts
09-Jan-21 19:45 35.495537 -115.540631 233 22719ft 410kts
09-Jan-21 19:46 35.417898 -115.645211 233 24671ft 420kts
09-Jan-21 19:47 35.338319 -115.752336 233 26452ft 431kts
09-Jan-21 19:48 35.256818 -115.861745 233 28081ft 440kts
09-Jan-21 19:49 35.171866 -115.971683 231 29566ft 451kts
09-Jan-21 19:50 35.083168 -116.083014 232 30245ft 459kts
09-Jan-21 19:51 34.996664 -116.191424 232 30258ft 428kts
09-Jan-21 19:52 34.912414 -116.297162 232 30258ft 436kts
09-Jan-21 19:53 34.830000 -116.401012 233 28952ft 419kts
09-Jan-21 19:54 34.751000 -116.501504 233 26820ft 405kts
09-Jan-21 19:55 34.671215 -116.595308 226 24722ft 399kts
09-Jan-21 19:56 34.586447 -116.679053 224 22648ft 389kts
09-Jan-21 19:57 34.503767 -116.761035 228 20648ft 378kts
09-Jan-21 19:58 34.428129 -116.848008 229 18622ft 370kts
09-Jan-21 19:59 34.354302 -116.933594 228 16443ft 368kts
09-Jan-21 20:00 34.280788 -117.018168 226 14376ft 360kts
09-Jan-21 20:01 34.198778 -117.082855 213 13607ft 349kts
09-Jan-21 20:02 34.112845 -117.134004 206 13008ft 348kts
09-Jan-21 20:03 34.025261 -117.180944 208 12602ft 336kts
09-Jan-21 20:04 33.955320 -117.253922 231 10396ft 336kts
09-Jan-21 20:05 33.901376 -117.329664 233 9770ft 273kts
09-Jan-21 20:06 33.851761 -117.399903 232 8389ft 262kts
09-Jan-21 20:07 33.813101 -117.463115 250 7794ft 225kts
09-Jan-21 20:08 33.795954 -117.530507 273 7649ft 211kts
09-Jan-21 20:09 33.797741 -117.610645 272 6380ft 243kts
09-Jan-21 20:10 33.797309 -117.689993 271 4838ft 226kts
09-Jan-21 20:11 33.797291 -117.763343 271 3248ft 210kts
09-Jan-21 20:12 33.779732 -117.808549 185 2245ft 153kts
09-Jan-21 20:13 33.739365 -117.828374 210 1353ft 155kts
09-Jan-21 20:14 33.703343 -117.851348 204 760ft 145kts
09-Jan-21 20:15 33.671102 -117.871693 210 66ft 58kts
09-Jan-21 20:16 33.667556 -117.872896 113 66ft 4kts
09-Jan-21 20:17 33.668227 -117.871828 40 66ft 19kts
09-Jan-21 20:18 33.674150 -117.866441 29 66ft 26kts

Navigation Log

Ident Type
Flight plan parsing failed, navigation log unavailable